.
WxDataArchive / Data Records for 2014-05-12
2014-05-11 May 2014 2014-05-13

Data Records for Monday, 12 May 2014

Time	Temp	Chill	HIndex	Humid	Dewpt	 Wind 	HiWind	WindDir	Rain 	Barom
-----	----	-----	------	-----	-----	------	------	-------	-----	-----
00:00	63.1	63.1	63.1	93	61.0	0	1	270	0.02	30.021 
00:05	63.1	63.1	63.1	93	61.0	1	3	270	0.01	30.021 
00:10	63.1	63.1	63.1	93	61.0	0	1	270	0.03	30.021 
00:15	63.1	63.1	63.1	93	61.0	0	0	---	0.02	29.991 
00:20	63.2	63.2	63.2	94	61.4	0	1	270	0.01	29.991 
00:25	63.2	63.2	63.2	94	61.4	0	1	270	0.02	29.991 
00:30	63.2	63.2	63.2	94	61.4	0	2	270	0.01	29.988 
00:35	63.1	63.1	63.1	94	61.3	0	1	270	0.03	29.988 
00:40	63.1	63.1	63.1	94	61.3	0	1	270	0.01	29.988 
00:45	62.9	62.9	62.9	94	61.1	0	0	---	0.03	29.988 
00:50	62.9	62.9	62.9	94	61.1	0	1	270	0.02	29.988 
00:55	62.7	62.7	62.7	94	60.9	1	2	270	0.03	29.988 
01:00	62.7	62.7	62.7	95	61.2	0	2	270	0.02	29.978 
01:05	62.7	62.7	62.7	95	61.2	0	2	270	0.02	29.978 
01:10	62.9	62.9	62.9	95	61.4	0	2	270	0.01	29.978 
01:15	62.9	62.9	62.9	95	61.4	0	1	270	0.04	29.991 
01:20	63.1	63.1	63.1	95	61.6	1	2	270	0.07	29.991 
01:25	63.2	63.2	63.2	95	61.7	0	2	270	0.02	29.991 
01:30	63.2	63.2	63.2	95	61.7	2	3	270	0.01	29.960 
01:35	63.1	63.1	63.1	95	61.6	1	3	270	0.01	29.960 
01:40	63.1	63.1	63.1	95	61.6	0	3	135	0.01	29.960 
01:45	62.9	62.9	62.9	95	61.4	1	4	112	0.00	29.924 
01:50	62.9	62.9	62.9	95	61.4	1	7	68	0.01	29.924 
01:55	62.9	62.9	62.9	96	61.7	0	2	68	0.01	29.924 
02:00	62.9	62.9	62.9	95	61.4	0	3	68	0.01	29.919 
02:05	62.9	62.9	62.9	95	61.4	0	2	68	0.01	29.919 
02:10	62.9	62.9	62.9	95	61.4	1	3	68	0.00	29.919 
02:15	62.9	62.9	62.9	95	61.4	1	4	112	0.00	29.908 
02:20	62.9	62.9	62.9	96	61.7	0	2	112	0.00	29.908 
02:25	63.1	63.1	63.1	95	61.6	0	1	112	0.00	29.908 
02:30	63.1	63.1	63.1	96	61.9	0	1	112	0.00	29.919 
02:35	63.1	63.1	63.1	96	61.9	0	1	112	0.00	29.919 
02:40	63.1	63.1	63.1	95	61.6	0	2	112	0.00	29.919 
02:45	62.9	62.9	62.9	95	61.4	0	2	112	0.00	29.907 
02:50	62.9	62.9	62.9	96	61.7	0	1	112	0.00	29.907 
02:55	62.9	62.9	62.9	96	61.7	0	3	112	0.00	29.907 
03:00	62.9	62.9	62.9	96	61.7	0	3	112	0.00	29.920 
03:05	62.9	62.9	62.9	95	61.4	0	2	112	0.00	29.920 
03:10	62.9	62.9	62.9	95	61.4	0	1	112	0.00	29.920 
03:15	62.9	62.9	62.9	95	61.4	0	0	---	0.00	29.934 
03:20	62.9	62.9	62.9	95	61.4	1	3	112	0.00	29.934 
03:25	62.7	62.7	62.7	95	61.2	0	1	112	0.00	29.934 
03:30	62.7	62.7	62.7	95	61.2	0	1	112	0.00	29.931 
03:35	62.7	62.7	62.7	95	61.2	0	2	112	0.00	29.931 
03:40	62.7	62.7	62.7	95	61.2	0	0	---	0.00	29.931 
03:45	62.7	62.7	62.7	95	61.2	0	1	112	0.00	29.930 
03:50	62.7	62.7	62.7	96	61.5	0	0	---	0.00	29.930 
03:55	62.6	62.6	62.6	96	61.4	0	0	---	0.00	29.930 
04:00	62.6	62.6	62.6	95	61.1	0	0	---	0.00	29.935 
04:05	62.6	62.6	62.6	96	61.4	0	0	---	0.00	29.935 
04:10	62.4	62.4	62.4	96	61.2	0	0	---	0.00	29.935 
04:15	62.4	62.4	62.4	96	61.2	0	0	---	0.00	29.934 
04:20	62.4	62.4	62.4	96	61.2	0	1	112	0.00	29.934 
04:25	62.4	62.4	62.4	96	61.2	0	0	---	0.00	29.934 
04:30	62.4	62.4	62.4	96	61.2	0	1	112	0.00	29.946 
04:35	62.6	62.6	62.6	96	61.4	0	0	---	0.00	29.946 
04:40	62.6	62.6	62.6	96	61.4	0	1	112	0.00	29.946 
04:45	62.6	62.6	62.6	96	61.4	0	1	112	0.00	29.948 
04:50	62.6	62.6	62.6	96	61.4	0	1	112	0.00	29.948 
04:55	62.6	62.6	62.6	96	61.4	0	0	---	0.00	29.948 
05:00	62.6	62.6	62.6	96	61.4	0	1	112	0.00	29.949 
05:05	62.4	62.4	62.4	96	61.2	0	1	112	0.00	29.949 
05:10	62.3	62.3	62.3	96	61.1	0	0	---	0.00	29.949 
05:15	62.1	62.1	62.1	96	60.9	0	0	---	0.00	29.946 
05:20	61.8	61.8	61.8	96	60.6	0	0	---	0.00	29.946 
05:25	61.8	61.8	61.8	96	60.6	0	0	---	0.00	29.946 
05:30	61.6	61.6	61.6	96	60.4	0	0	---	0.00	29.933 
05:35	61.5	61.5	61.5	96	60.3	0	0	---	0.00	29.933 
05:40	61.3	61.3	61.3	96	60.1	0	0	---	0.00	29.933 
05:45	61.3	61.3	61.3	96	60.1	0	0	---	0.00	29.949 
05:50	61.2	61.2	61.2	96	60.0	0	0	---	0.00	29.949 
05:55	61.3	61.3	61.3	96	60.1	0	1	112	0.00	29.949 
06:00	61.5	61.5	61.5	96	60.3	0	1	112	0.00	29.949 
06:05	61.5	61.5	61.5	96	60.3	0	0	---	0.00	29.949 
06:10	61.6	61.6	61.6	96	60.4	0	0	---	0.00	29.949 
06:15	61.6	61.6	61.6	96	60.4	0	0	---	0.00	29.960 
06:20	61.6	61.6	61.6	96	60.4	0	0	---	0.00	29.960 
06:25	61.6	61.6	61.6	96	60.4	0	0	---	0.00	29.960 
06:30	61.6	61.6	61.6	96	60.4	0	0	---	0.00	29.951 
06:35	61.6	61.6	61.6	96	60.4	0	0	---	0.00	29.951 
06:40	61.6	61.6	61.6	96	60.4	0	0	---	0.00	29.951 
06:45	61.6	61.6	61.6	96	60.4	0	1	112	0.00	29.944 
06:50	61.6	61.6	61.6	96	60.4	0	0	---	0.00	29.944 
06:55	61.6	61.6	61.6	96	60.4	0	0	---	0.00	29.944 
07:00	61.6	61.6	61.6	96	60.4	0	0	---	0.00	29.949 
07:05	61.6	61.6	61.6	96	60.4	0	0	---	0.00	29.949 
07:10	61.8	61.8	61.8	96	60.6	0	1	112	0.00	29.949 
07:15	61.8	61.8	61.8	96	60.6	0	1	112	0.00	29.952 
07:20	61.8	61.8	61.8	96	60.6	0	1	112	0.00	29.952 
07:25	61.8	61.8	61.8	96	60.6	0	1	112	0.00	29.952 
07:30	62.0	62.0	62.0	96	60.8	0	1	112	0.00	29.952 
07:35	62.1	62.1	62.1	96	60.9	0	1	22	0.00	29.952 
07:40	62.1	62.1	62.1	96	60.9	0	1	22	0.00	29.952 
07:45	62.3	62.3	62.3	96	61.1	0	1	22	0.00	29.956 
07:50	62.4	62.4	62.4	96	61.2	0	2	68	0.00	29.956 
07:55	62.6	62.6	62.6	96	61.4	0	2	68	0.00	29.956 
08:00	62.6	62.6	62.6	96	61.4	0	1	68	0.00	29.959 
08:05	62.4	62.4	62.4	96	61.2	0	3	68	0.00	29.959 
08:10	62.6	62.6	62.6	96	61.4	0	2	68	0.00	29.959 
08:15	62.6	62.6	62.6	96	61.4	0	3	135	0.00	29.961 
08:20	62.9	62.9	62.9	96	61.7	0	3	135	0.00	29.961 
08:25	63.1	63.1	63.1	96	61.9	0	2	135	0.00	29.961 
08:30	63.1	63.1	63.1	96	61.9	0	3	135	0.00	29.971 
08:35	63.2	63.2	63.2	96	62.0	1	3	135	0.00	29.971 
08:40	63.5	63.5	63.5	96	62.3	0	2	135	0.00	29.971 
08:45	63.7	63.7	63.7	96	62.5	0	3	135	0.00	29.969 
08:50	64.0	64.0	64.0	96	62.8	1	3	135	0.00	29.969 
08:55	64.3	64.3	64.3	96	63.1	0	3	135	0.00	29.969 
09:00	64.8	64.8	64.8	96	63.6	0	3	135	0.00	29.970 
09:05	65.2	65.2	65.2	95	63.7	1	5	90	0.00	29.970 
09:10	65.5	65.5	65.5	95	64.0	0	1	90	0.00	29.970 
09:15	65.8	65.8	65.8	94	64.0	0	3	90	0.00	29.969 
09:20	66.4	66.4	66.4	94	64.6	0	2	90	0.00	29.969 
09:25	67.1	67.1	67.1	93	65.0	0	1	90	0.00	29.969 
09:30	67.3	67.3	67.3	91	64.6	1	3	90	0.00	29.968 
09:35	67.6	67.6	67.6	89	64.2	1	3	90	0.00	29.968 
09:40	67.9	67.9	67.9	88	64.2	0	3	90	0.00	29.968 
09:45	68.3	68.3	68.3	87	64.3	0	6	90	0.00	29.964 
09:50	68.3	68.3	68.3	87	64.3	1	5	270	0.00	29.964 
09:55	69.1	69.1	69.1	86	64.7	1	4	90	0.00	29.964 
10:00	69.6	69.6	69.6	84	64.5	1	4	270	0.00	29.955 
10:05	70.4	70.4	70.4	84	65.3	0	1	270	0.00	29.955 
10:10	70.8	70.8	70.8	82	65.0	1	3	270	0.00	29.955 
10:15	71.3	71.3	71.3	81	65.2	1	4	0	0.00	29.955 
10:20	71.6	71.6	71.6	80	65.1	1	2	315	0.00	29.955 
10:25	72.1	72.1	72.1	80	65.6	1	4	248	0.00	29.955 
10:30	73.0	73.0	73.0	79	66.1	1	3	112	0.00	29.961 
10:35	73.3	73.3	73.3	78	66.0	1	3	315	0.00	29.961 
10:40	73.9	73.9	73.9	78	66.6	1	4	292	0.00	29.961 
10:45	74.2	74.2	74.2	76	66.1	1	6	292	0.00	29.956 
10:50	74.4	74.4	74.4	77	66.7	1	5	248	0.00	29.956 
10:55	75.1	75.1	76.1	77	67.4	0	2	248	0.00	29.956 
11:00	75.6	75.6	77.0	73	66.3	1	4	248	0.00	29.947 
11:05	75.8	75.8	77.2	74	66.9	1	5	292	0.00	29.947 
11:10	76.0	76.0	77.4	74	67.1	1	4	292	0.00	29.947 
11:15	76.3	76.3	77.8	74	67.4	1	4	270	0.00	29.954 
11:20	76.7	76.7	78.3	73	67.4	1	4	270	0.00	29.954 
11:25	77.0	77.0	78.7	73	67.7	1	5	292	0.00	29.954 
11:30	77.6	77.6	79.5	72	67.8	1	3	248	0.00	29.951 
11:35	77.9	77.9	79.9	72	68.1	1	4	248	0.00	29.951 
11:40	78.1	78.1	80.2	71	67.9	1	5	270	0.00	29.951 
11:45	78.1	78.1	80.2	71	67.9	1	4	270	0.00	29.955 
11:50	78.5	78.5	80.8	72	68.7	1	4	270	0.00	29.955 
11:55	78.8	78.8	81.2	71	68.6	1	4	270	0.00	29.955 
12:00	79.2	79.2	81.8	71	69.0	2	4	248	0.00	29.965 
12:05	79.6	79.6	82.3	70	68.9	1	6	248	0.00	29.965 
12:10	79.6	79.6	82.2	69	68.5	1	3	270	0.00	29.965 
12:15	79.6	79.6	82.2	69	68.5	1	4	270	0.00	29.964 
12:20	79.6	79.6	82.2	69	68.5	2	4	270	0.00	29.964 
12:25	79.8	79.8	82.6	70	69.1	1	4	248	0.00	29.964 
12:30	79.9	79.9	82.9	71	69.6	1	4	248	0.00	29.962 
12:35	80.1	80.1	82.9	68	68.6	2	10	248	0.00	29.962 
12:40	80.5	80.5	83.8	70	69.8	1	4	270	0.00	29.962 
12:45	80.7	80.7	83.8	68	69.1	2	6	270	0.00	29.954 
12:50	80.9	80.9	84.1	68	69.3	2	4	248	0.00	29.954 
12:55	80.7	80.7	83.7	67	68.7	2	4	248	0.00	29.954 
13:00	80.7	80.7	84.0	69	69.6	2	4	270	0.00	29.949 
13:05	80.9	80.9	84.1	68	69.3	1	3	270	0.00	29.949 
13:10	80.7	80.7	83.7	67	68.7	1	4	270	0.00	29.949 
13:15	80.5	80.5	83.3	67	68.5	1	3	270	0.00	29.950 
13:20	80.7	80.7	83.7	67	68.7	1	4	270	0.00	29.950 
13:25	81.2	81.2	84.5	67	69.2	1	4	292	0.00	29.950 
13:30	81.6	81.6	85.1	67	69.6	1	5	248	0.00	29.948 
13:35	81.4	81.4	84.4	65	68.5	1	4	248	0.00	29.948 
13:40	81.2	81.2	84.1	65	68.3	1	6	248	0.00	29.948 
13:45	81.1	81.1	84.1	66	68.6	1	3	292	0.00	29.951 
13:50	81.2	81.2	84.3	66	68.7	2	5	248	0.00	29.951 
13:55	81.4	81.4	84.3	64	68.0	1	5	248	0.00	29.951 
14:00	81.4	81.4	84.1	63	67.6	3	8	248	0.00	29.955 
14:05	81.4	81.4	83.9	62	67.1	2	5	270	0.00	29.955 
14:10	81.2	81.2	84.0	64	67.8	1	7	248	0.00	29.955 
14:15	81.4	81.4	84.1	63	67.6	2	5	248	0.00	29.950 
14:20	81.4	81.4	84.1	63	67.6	2	4	248	0.00	29.950 
14:25	81.8	81.8	84.7	63	67.9	2	4	248	0.00	29.950 
14:30	82.2	82.2	85.1	62	67.9	2	5	248	0.00	29.938 
14:35	82.8	82.8	86.3	63	68.9	1	3	248	0.00	29.938 
14:40	83.2	83.2	86.7	62	68.8	2	6	248	0.00	29.938 
14:45	83.2	83.2	86.0	59	67.4	2	4	248	0.00	29.931 
14:50	83.0	83.0	86.1	61	68.1	1	4	45	0.00	29.931 
14:55	82.6	82.6	85.5	61	67.8	2	4	270	0.00	29.931 
15:00	82.4	82.4	85.2	61	67.6	2	3	270	0.00	29.923 
15:05	82.0	82.0	84.8	62	67.7	1	6	270	0.00	29.923 
15:10	82.4	82.4	86.1	65	69.4	1	2	270	0.00	29.923 
15:15	82.8	82.8	85.8	61	67.9	1	5	270	0.00	29.918 
15:20	83.0	83.0	85.9	60	67.7	2	5	270	0.00	29.918 
15:25	83.2	83.2	86.0	59	67.4	1	5	270	0.00	29.918 
15:30	83.2	83.2	85.6	57	66.4	3	7	248	0.00	29.915 
15:35	83.4	83.4	86.1	58	67.0	3	6	248	0.00	29.915 
15:40	83.8	83.8	87.2	60	68.4	1	4	248	0.00	29.915 
15:45	84.1	84.1	86.9	57	67.2	2	6	248	0.00	29.904 
15:50	84.1	84.1	86.7	56	66.7	2	6	248	0.00	29.904 
15:55	84.1	84.1	86.7	56	66.7	3	8	270	0.00	29.904 
16:00	83.8	83.8	86.2	56	66.4	3	7	248	0.00	29.900 
16:05	84.0	84.0	86.5	56	66.6	2	6	248	0.00	29.900 
16:10	84.0	84.0	86.5	56	66.6	3	7	248	0.00	29.900 
16:15	84.7	84.7	87.6	56	67.2	2	4	270	0.00	29.890 
16:20	85.1	85.1	88.8	58	68.6	1	4	270	0.00	29.890 
16:25	85.1	85.1	88.8	58	68.6	1	5	248	0.00	29.890 
16:30	84.9	84.9	87.9	56	67.4	2	5	248	0.00	29.888 
16:35	84.3	84.3	87.2	57	67.4	1	4	248	0.00	29.888 
16:40	83.6	83.6	86.4	58	67.2	1	6	248	0.00	29.888 
16:45	83.2	83.2	86.2	60	67.8	2	5	248	0.00	29.894 
16:50	83.2	83.2	86.2	60	67.8	1	5	248	0.00	29.894 
16:55	83.6	83.6	87.4	62	69.2	1	4	248	0.00	29.894 
17:00	83.8	83.8	86.7	58	67.4	1	3	112	0.00	29.890 
17:05	83.6	83.6	86.4	58	67.2	1	4	270	0.00	29.890 
17:10	83.2	83.2	85.8	58	66.9	1	6	248	0.00	29.890 
17:15	83.2	83.2	85.8	58	66.9	1	4	135	0.00	29.891 
17:20	83.2	83.2	85.8	58	66.9	2	5	248	0.00	29.891 
17:25	83.2	83.2	85.8	58	66.9	1	4	248	0.00	29.891 
17:30	83.0	83.0	85.5	58	66.7	1	5	248	0.00	29.893 
17:35	83.0	83.0	85.7	59	67.2	1	3	248	0.00	29.893 
17:40	83.2	83.2	85.8	58	66.9	1	3	270	0.00	29.893 
17:45	83.6	83.6	86.4	58	67.2	1	4	270	0.00	29.898 
17:50	83.6	83.6	86.1	57	66.7	2	5	248	0.00	29.898 
17:55	83.8	83.8	86.7	58	67.4	1	4	248	0.00	29.898 
18:00	84.0	84.0	86.5	56	66.6	2	5	248	0.00	29.899 
18:05	84.0	84.0	86.7	57	67.1	1	4	248	0.00	29.899 
18:10	84.0	84.0	86.7	57	67.1	1	5	248	0.00	29.899 
18:15	83.2	83.2	85.6	57	66.4	2	7	248	0.00	29.902 
18:20	82.6	82.6	84.9	58	66.3	1	5	90	0.00	29.902 
18:25	82.2	82.2	84.5	59	66.4	2	5	270	0.00	29.902 
18:30	81.6	81.6	84.2	62	67.3	1	4	248	0.00	29.902 
18:35	81.1	81.1	83.8	64	67.7	0	2	248	0.00	29.902 
18:40	80.7	80.7	83.2	64	67.4	0	1	248	0.00	29.902 
18:45	80.7	80.7	83.5	66	68.3	0	2	248	0.00	29.902 
18:50	80.7	80.7	83.4	65	67.8	1	3	248	0.00	29.902 
18:55	80.7	80.7	83.4	65	67.8	0	1	248	0.00	29.902 
19:00	80.7	80.7	83.2	64	67.4	1	5	248	0.00	29.904 
19:05	80.5	80.5	82.8	63	66.7	1	5	292	0.00	29.904 
19:10	80.3	80.3	82.7	64	67.0	1	2	248	0.00	29.904 
19:15	79.9	79.9	82.2	65	67.1	1	3	248	0.00	29.909 
19:20	79.8	79.8	82.1	65	67.0	1	4	248	0.00	29.909 
19:25	79.9	79.9	82.2	65	67.1	1	3	248	0.00	29.909 
19:30	79.9	79.9	82.2	65	67.1	1	3	248	0.00	29.902 
19:35	79.8	79.8	82.1	65	67.0	1	3	248	0.00	29.902 
19:40	79.8	79.8	82.2	66	67.4	0	1	248	0.00	29.902 
19:45	79.6	79.6	81.8	65	66.8	0	2	248	0.00	29.903 
19:50	79.6	79.6	81.9	66	67.2	0	2	248	0.00	29.903 
19:55	79.4	79.4	81.6	66	67.0	1	2	248	0.00	29.903 
20:00	79.2	79.2	81.4	66	66.8	0	1	248	0.00	29.905 
20:05	79.2	79.2	81.3	65	66.4	1	3	248	0.00	29.905 
20:10	79.2	79.2	81.4	66	66.8	0	3	248	0.00	29.905 
20:15	79.0	79.0	81.1	66	66.6	0	1	248	0.00	29.903 
20:20	78.8	78.8	80.9	67	66.9	0	2	248	0.00	29.903 
20:25	78.6	78.6	80.7	67	66.7	0	3	248	0.00	29.903 
20:30	78.6	78.6	80.7	67	66.7	0	3	248	0.00	29.902 
20:35	78.5	78.5	80.5	67	66.6	0	2	248	0.00	29.902 
20:40	78.3	78.3	80.3	68	66.8	1	7	270	0.00	29.902 
20:45	78.1	78.1	80.1	68	66.7	0	2	270	0.00	29.903 
20:50	77.9	77.9	79.9	69	66.9	0	2	270	0.00	29.903 
20:55	77.7	77.7	79.6	70	67.1	0	4	270	0.00	29.903 
21:00	77.4	77.4	79.3	70	66.8	0	3	0	0.00	29.904 
21:05	77.2	77.2	79.0	71	67.0	0	1	248	0.00	29.904 
21:10	76.8	76.8	78.5	72	67.1	0	1	248	0.00	29.904 
21:15	76.7	76.7	78.3	73	67.4	0	3	248	0.00	29.900 
21:20	76.3	76.3	77.8	73	67.0	0	2	248	0.00	29.900 
21:25	76.1	76.1	77.5	74	67.2	0	2	248	0.00	29.900 
21:30	76.0	76.0	77.4	74	67.1	0	1	248	0.00	29.900 
21:35	75.8	75.8	77.1	75	67.3	0	1	248	0.00	29.900 
21:40	75.6	75.6	76.9	75	67.1	0	2	248	0.00	29.900 
21:45	75.4	75.4	76.5	76	67.3	0	4	90	0.00	29.903 
21:50	75.3	75.3	76.4	76	67.2	0	2	90	0.00	29.903 
21:55	75.1	75.1	76.1	77	67.4	1	6	68	0.00	29.903 
22:00	75.1	75.1	76.1	77	67.4	0	3	248	0.00	29.903 
22:05	74.9	74.9	74.9	77	67.2	0	2	248	0.00	29.903 
22:10	74.7	74.7	74.7	77	67.0	0	5	248	0.00	29.903 
22:15	74.6	74.6	74.6	78	67.3	0	1	68	0.00	29.900 
22:20	74.4	74.4	74.4	78	67.1	0	3	68	0.00	29.900 
22:25	74.2	74.2	74.2	78	66.9	0	2	68	0.00	29.900 
22:30	74.0	74.0	74.0	79	67.1	0	1	68	0.00	29.912 
22:35	73.9	73.9	73.9	79	67.0	0	1	68	0.00	29.912 
22:40	73.7	73.7	73.7	80	67.1	0	1	68	0.00	29.912 
22:45	73.5	73.5	73.5	80	66.9	0	1	68	0.00	29.919 
22:50	73.5	73.5	73.5	80	66.9	0	3	68	0.00	29.919 
22:55	73.3	73.3	73.3	80	66.7	0	2	68	0.00	29.919 
23:00	73.3	73.3	73.3	80	66.7	0	3	68	0.00	29.932 
23:05	73.3	73.3	73.3	80	66.7	0	3	338	0.00	29.932 
23:10	73.3	73.3	73.3	80	66.7	0	1	338	0.00	29.932 
23:15	73.2	73.2	73.2	80	66.6	0	1	338	0.00	29.941 
23:20	73.2	73.2	73.2	80	66.6	0	1	338	0.00	29.941 
23:25	73.0	73.0	73.0	81	66.8	0	3	68	0.00	29.941 
23:30	73.0	73.0	73.0	81	66.8	0	1	68	0.00	29.943 
23:35	72.8	72.8	72.8	81	66.6	0	2	68	0.00	29.943 
23:40	72.8	72.8	72.8	81	66.6	0	3	292	0.00	29.943 
23:45	72.7	72.7	72.7	81	66.5	0	2	292	0.00	29.947 
23:50	72.7	72.7	72.7	81	66.5	0	1	292	0.00	29.947 
23:55	72.3	72.3	72.3	81	66.1	0	2	292	0.00	29.947 

CoCoRaHS
IN-AL-39
A2 Web Hosting
Creative Commons License
GoDaddy
search engine by freefind advanced

loaded 2018-11-13 17:07:57 • last modified 2010-11-18 10:43:29
Privacy PolicyDisclaimer
• wx.awcolley.com is powered by PmWiki v.2002016 •
• all content (unless otherwise noted) © 2018 A W Colley